Flight Track Log - Related Links

Times and Time Zones

All times are in EDT time to prevent confusion due to time zone crossing. See the SWA862 flight status page for this flight to view local times or setup timezone preferences in your user account.

Time Position Orientation Groundspeed Altitude Reporting Facility
EDT Latitude Longitude Course Direction KTS MPH feet Rate Location/Type
Sun 08:17:58 PM 35.8411 -78.8256 220° Southwest 148 170 2,400  Level Washington Center
Sun 08:18:58 PM 35.8644 -78.8856 296° West 234 269 5,400 3,082 Climbing Washington Center
Sun 08:20:24 PM 35.9497 -78.8275 29° Northeast 316 364 9,900 2,712 Climbing Washington Center
Sun 08:21:24 PM 36.0186 -78.7431 45° Northeast 330 380 12,000 1,050 Climbing Washington Center
Sun 08:22:24 PM 36.0856 -78.6531 47° Northeast 342 394 12,000 1,450 Level Washington Center
Sun 08:23:24 PM 36.1611 -78.5558 46° Northeast 348 400 14,900 2,900 Climbing Washington Center
Sun 08:24:24 PM 36.2364 -78.4608 45° Northeast 359 413 17,800 2,850 Climbing Washington Center
Sun 08:25:24 PM 36.3156 -78.3786 40° Northeast 378 435 20,600 1,600 Climbing Washington Center
Sun 08:26:24 PM 36.4031 -78.2992 36° Northeast 388 447 21,000 200 Climbing Washington Center
Sun 08:27:24 PM 36.4883 -78.2142 39° Northeast 388 447 21,000  Level Washington Center
Sun 08:28:24 PM 36.5861 -78.1269 36° Northeast 388 447 21,000  Level Washington Center
Sun 08:29:24 PM 36.6714 -78.0417 39° Northeast 393 452 21,000  Level Washington Center
Sun 08:30:24 PM 36.7564 -77.9614 37° Northeast 393 452 21,000  Level Washington Center
Sun 08:31:24 PM 36.8456 -77.8811 36° Northeast 398 458 21,000  Level Washington Center
Sun 08:32:24 PM 36.9283 -77.8108 34° Northeast 398 458 21,000  Level Washington Center
Sun 08:33:24 PM 37.0194 -77.7328 34° Northeast 393 452 21,000  Level Washington Center
Sun 08:34:24 PM 37.1106 -77.6572 33° Northeast 393 452 21,000  Level Washington Center
Sun 08:35:24 PM 37.2017 -77.5789 34° Northeast 388 447 21,000  Level Washington Center
Sun 08:36:24 PM 37.3044 -77.5344 19° North 383 441 21,000  Level Washington Center
Sun 08:37:24 PM 37.4072 -77.4978 16° North 377 434 21,000  Level Washington Center
Sun 08:38:24 PM 37.5100 -77.4586 17° North 377 434 21,000  Level Washington Center
Sun 08:39:24 PM 37.6150 -77.4217 16° North 383 441 21,000  Level Washington Center
Sun 08:40:24 PM 37.7283 -77.3797 16° North 383 441 21,000  Level Washington Center
Sun 08:41:24 PM 37.8353 -77.3403 16° North 388 447 21,000  Level Washington Center
Sun 08:42:24 PM 37.9414 -77.3586 352° North 379 436 21,000 -500 Level Washington Center
Sun 08:43:24 PM 38.0456 -77.3558 North 373 429 20,000 -1,000 Descending Washington Center
Sun 08:44:24 PM 38.1444 -77.2919 27° Northeast 373 429 19,000 -1,000 Descending Washington Center
Sun 08:45:24 PM 38.2433 -77.2281 27° Northeast 383 441 18,000 -950 Descending Washington Center
Sun 08:46:24 PM 38.3317 -77.1692 28° Northeast 373 429 17,100 -1,150 Descending Washington Center
Sun 08:47:24 PM 38.4156 -77.1367 17° North 341 392 15,700 -1,550 Descending Washington Center
Sun 08:48:24 PM 38.5031 -77.1464 355° North 313 360 14,000 -1,650 Descending Washington Center
Sun 08:49:24 PM 38.5842 -77.1586 353° North 302 348 12,400 -1,400 Descending Washington Center
Sun 08:50:24 PM 38.6597 -77.1336 14° North 273 314 11,200 -1,105 Descending Washington Center
Sun 08:50:40 PM 38.6667 -77.1000 75° East 308 354 11,000 -79 Descending Potomac TRACON
Sun 08:51:40 PM 38.6833 -77.0000 78° East 318 366 11,100 -333 Climbing Potomac TRACON
Sun 08:52:46 PM 38.7000 -76.8667 81° East 314 361 10,300 -577 Descending Potomac TRACON
Sun 08:53:24 PM 38.6986 -76.8258 92° East 282 325 10,100 -1,167 Descending Washington Center
Sun 08:55:46 PM 38.7833 -76.5833 66° East 281 323 6,800 -1,316 Descending Potomac TRACON
Sun 08:56:40 PM 38.8333 -76.5333 38° Northeast 270 311 5,800 -1,041 Descending Potomac TRACON
Sun 08:57:47 PM 38.9000 -76.5667 339° North 255 293 4,700 -843 Descending Potomac TRACON
Sun 08:58:41 PM 38.9667 -76.5833 349° North 258 297 4,100 -368 Descending Potomac TRACON
Sun 08:59:41 PM 39.0000 -76.6500 303° West 233 268 4,000 -50 Descending Potomac TRACON
Sun 09:00:41 PM 39.0333 -76.7333 297° West 238 274 4,000  Level Potomac TRACON
Sun 09:01:41 PM 39.0667 -76.8000 303° West 210 242 4,000 -400 Level Potomac TRACON
Sun 09:02:41 PM 39.1000 -76.8500 311° West 188 216 3,200 -1,050 Descending Potomac TRACON
Sun 09:03:41 PM 39.1500 -76.8333 14° North 214 246 1,900 -810 Descending Potomac TRACON
Sun 09:04:47 PM 39.1833 -76.7667 57° Northeast 178 205 1,500 -545 Descending Potomac TRACON
Sun 09:05:42 PM 39.1833 -76.7167 90° East 144 166 800 -764 Descending Potomac TRACON
Sun 09:07:00 PM 39.1667 -76.6667 339° North  Level FlightAware Approximate
Sun 09:14:00 PM 39.1754 -76.6683 339° North  Level Estimated
Sun 09:15:00 PM 39.1754 -76.6683 339° North  Level Estimated

Login

Don't have an account? Register now (free) for customized features, flight alerts, and more!